Snow Goose — WCW3138 — position and weather

sailwx.info

Track history (hours):
 
Tides and Currents Weather Stations Pressure Air Temp Water Temp Dewpoint Dewpoint Depression Visibility Wind Speed Wind Dir Waves Ship Positions

Snow Goose

Owner: UNITED STATES YACHT BUILDING CRP, EDISON, NJ. More information available from US FCC via Universal Licensing System and Coast Guard Vessel Documentation Center.

Last reported at 2018-Jul-16 23:26 UTC. Time now 2018-Jul-19 13:12 UTC.
Position N 40°37' W 074°03'.

Length 35 m.

Type: Sailing vessel. MMSI: 367091540.

Date/timePositionNaut miles runAvg speedWind from/ knotsBaromVisibWave heightAir tempDewpointWater temp
2018-Jul-16 23:26N 40°37' W 074°03'4 8.5
2018-Jul-16 22:58N 40°41' W 074°02'2 3.5
2018-Jul-16 22:30N 40°43' W 074°02'1 0.0
2018-Jul-15 23:16N 40°44' W 074°01'2 8.0
2018-Jul-15 22:59N 40°42' W 074°02'1 1.4
2018-Jul-15 22:30N 40°41' W 074°03'7 0.2
2018-Jul-14 09:19N 40°47' W 073°59'0 0.0
2018-Jul-14 08:43N 40°47' W 073°59'0 0.0
2018-Jul-14 08:25N 40°47' W 073°59'0 0.0
2018-Jul-14 07:58N 40°47' W 073°59'0 0.0
2018-Jul-14 07:28N 40°47' W 073°59'0 0.0
2018-Jul-14 06:55N 40°47' W 073°59'0 0.0
2018-Jul-14 06:28N 40°47' W 073°59'3 0.1
2018-Jul-13 10:55N 40°45' W 074°01'4 9.2
2018-Jul-13 10:31N 40°41' W 074°02'5 9.1
2018-Jul-13 09:56N 40°36' W 074°02'4 9.7
2018-Jul-13 09:29N 40°32' W 074°01'510.3
2018-Jul-13 09:00N 40°30' W 073°55'5 9.8
2018-Jul-13 08:30N 40°30' W 073°49'5 9.6
2018-Jul-13 08:00N 40°31' W 073°42'5 9.4
2018-Jul-13 07:30N 40°32' W 073°36'5 9.1
2018-Jul-13 07:00N 40°33' W 073°30'11 9.0
2018-Jul-13 05:49N 40°35' W 073°17'4 8.9
2018-Jul-13 05:23N 40°36' W 073°12'4 8.9
2018-Jul-13 05:00N 40°38' W 073°08'4 8.9
2018-Jul-13 04:30N 40°39' W 073°02'12 9.2
2018-Jul-13 03:11N 40°43' W 072°47'5 9.2
2018-Jul-13 02:35N 40°45' W 072°40'  
2018-Jul-09 05:33N 41°17' W 070°05'0 0.0
2018-Jul-09 05:06N 41°17' W 070°05'0 0.0
2018-Jul-09 05:00N 41°17' W 070°05'0 0.0
2018-Jul-09 04:06N 41°17' W 070°05'0 0.1
2018-Jul-09 04:00N 41°17' W 070°05'0 0.0
2018-Jul-09 03:30N 41°17' W 070°05'0 0.0
2018-Jul-09 03:00N 41°17' W 070°05'0 0.0
2018-Jul-09 02:30N 41°17' W 070°05'0 0.0
2018-Jul-09 01:27N 41°17' W 070°05'  
Track history (hours):
 
Tides and Currents Weather Stations Pressure Air Temp Water Temp Dewpoint Dewpoint Depression Visibility Wind Speed Wind Dir Waves Ship Positions

Snow Goose

Owner: UNITED STATES YACHT BUILDING CRP, EDISON, NJ. More information available from US FCC via Universal Licensing System and Coast Guard Vessel Documentation Center.

Last reported at 2018-Jul-16 23:26 UTC. Time now 2018-Jul-19 13:12 UTC.
Position N 40°37' W 074°03'.

Length 35 m.

Type: Sailing vessel. MMSI: 367091540.

Date/timePositionNaut miles runAvg speedWind from/ knotsBaromVisibWave heightAir tempDewpointWater temp
2018-Jul-16 23:26N 40°37' W 074°03'4 8.5
2018-Jul-16 22:58N 40°41' W 074°02'2 3.5
2018-Jul-16 22:30N 40°43' W 074°02'1 0.0
2018-Jul-15 23:16N 40°44' W 074°01'2 8.0
2018-Jul-15 22:59N 40°42' W 074°02'1 1.4
2018-Jul-15 22:30N 40°41' W 074°03'7 0.2
2018-Jul-14 09:19N 40°47' W 073°59'0 0.0
2018-Jul-14 08:43N 40°47' W 073°59'0 0.0
2018-Jul-14 08:25N 40°47' W 073°59'0 0.0
2018-Jul-14 07:58N 40°47' W 073°59'0 0.0
2018-Jul-14 07:28N 40°47' W 073°59'0 0.0
2018-Jul-14 06:55N 40°47' W 073°59'0 0.0
2018-Jul-14 06:28N 40°47' W 073°59'3 0.1
2018-Jul-13 10:55N 40°45' W 074°01'4 9.2
2018-Jul-13 10:31N 40°41' W 074°02'5 9.1
2018-Jul-13 09:56N 40°36' W 074°02'4 9.7
2018-Jul-13 09:29N 40°32' W 074°01'510.3
2018-Jul-13 09:00N 40°30' W 073°55'5 9.8
2018-Jul-13 08:30N 40°30' W 073°49'5 9.6
2018-Jul-13 08:00N 40°31' W 073°42'5 9.4
2018-Jul-13 07:30N 40°32' W 073°36'5 9.1
2018-Jul-13 07:00N 40°33' W 073°30'11 9.0
2018-Jul-13 05:49N 40°35' W 073°17'4 8.9
2018-Jul-13 05:23N 40°36' W 073°12'4 8.9
2018-Jul-13 05:00N 40°38' W 073°08'4 8.9
2018-Jul-13 04:30N 40°39' W 073°02'12 9.2
2018-Jul-13 03:11N 40°43' W 072°47'5 9.2
2018-Jul-13 02:35N 40°45' W 072°40'  
2018-Jul-09 05:33N 41°17' W 070°05'0 0.0
2018-Jul-09 05:06N 41°17' W 070°05'0 0.0
2018-Jul-09 05:00N 41°17' W 070°05'0 0.0
2018-Jul-09 04:06N 41°17' W 070°05'0 0.1
2018-Jul-09 04:00N 41°17' W 070°05'0 0.0
2018-Jul-09 03:30N 41°17' W 070°05'0 0.0
2018-Jul-09 03:00N 41°17' W 070°05'0 0.0
2018-Jul-09 02:30N 41°17' W 070°05'0 0.0
2018-Jul-09 01:27N 41°17' W 070°05'  

Dump ship's entire track history